createdAt,value
2023-04-30T00:00:22.560Z,90.70
2023-04-30T00:00:56.702Z,90.70
2023-04-30T00:01:31.524Z,90.70
2023-04-30T00:02:05.376Z,90.80
2023-04-30T00:02:39.632Z,90.80
2023-04-30T00:03:15.213Z,90.80
2023-04-30T00:03:49.574Z,90.90
2023-04-30T00:04:24.853Z,90.90
2023-04-30T00:05:01.173Z,90.90
2023-04-30T00:05:34.105Z,90.90
2023-04-30T00:06:07.573Z,90.90
2023-04-30T00:06:43.000Z,90.90
2023-04-30T00:07:16.964Z,90.90
2023-04-30T00:07:51.558Z,90.90
2023-04-30T00:08:27.904Z,91.00
2023-04-30T00:09:01.716Z,91.00
2023-04-30T00:09:35.858Z,91.00
2023-04-30T00:10:12.522Z,91.00
2023-04-30T00:10:46.408Z,91.00
2023-04-30T00:11:20.345Z,91.10
2023-04-30T00:11:54.220Z,91.10
2023-04-30T00:12:29.445Z,91.10
2023-04-30T00:13:03.837Z,91.10
2023-04-30T00:13:37.513Z,91.10
2023-04-30T00:14:11.561Z,91.10
2023-04-30T00:14:44.462Z,91.10
2023-04-30T00:15:19.602Z,91.20
2023-04-30T00:15:53.527Z,91.20
2023-04-30T00:16:26.296Z,91.20
2023-04-30T00:16:59.487Z,91.30
2023-04-30T00:17:34.179Z,91.30
2023-04-30T00:18:08.776Z,91.30
2023-04-30T00:18:41.935Z,91.30
2023-04-30T00:19:17.674Z,91.30
2023-04-30T00:19:52.033Z,91.30
2023-04-30T00:20:26.624Z,91.40
2023-04-30T00:21:01.442Z,91.40
2023-04-30T00:21:34.583Z,91.30
2023-04-30T00:22:08.104Z,91.40
2023-04-30T00:22:43.377Z,91.40
2023-04-30T00:23:17.402Z,91.40
2023-04-30T00:23:50.769Z,91.40
2023-04-30T00:24:27.154Z,91.50
2023-04-30T00:25:01.587Z,91.50
2023-04-30T00:25:35.687Z,91.60
2023-04-30T00:26:09.764Z,91.50
2023-04-30T00:26:44.546Z,91.50
2023-04-30T00:27:19.037Z,91.60
2023-04-30T00:27:52.272Z,91.60
2023-04-30T00:28:27.256Z,91.70
2023-04-30T00:29:01.204Z,91.70
2023-04-30T00:29:34.119Z,91.70
2023-04-30T00:30:10.664Z,91.90
2023-04-30T00:30:45.402Z,91.70
2023-04-30T00:31:18.782Z,91.70
2023-04-30T00:31:54.460Z,91.70
2023-04-30T00:32:28.911Z,91.80
2023-04-30T00:33:02.720Z,91.80
2023-04-30T00:33:37.888Z,91.80
2023-04-30T00:34:11.840Z,91.80
2023-04-30T00:34:46.107Z,91.80
2023-04-30T00:35:21.466Z,91.90
2023-04-30T00:35:56.473Z,91.90
2023-04-30T00:36:31.268Z,91.90
2023-04-30T00:37:05.114Z,92.00
2023-04-30T00:37:38.876Z,92.20
2023-04-30T00:38:13.442Z,92.00
2023-04-30T00:38:47.197Z,92.10
2023-04-30T00:39:20.293Z,92.10
2023-04-30T00:39:55.249Z,92.10
2023-04-30T00:40:28.277Z,92.10
2023-04-30T00:41:01.898Z,92.10
2023-04-30T00:41:37.847Z,92.20
2023-04-30T00:42:11.192Z,92.30
2023-04-30T00:42:44.950Z,92.40
2023-04-30T00:43:19.970Z,92.40
2023-04-30T00:43:53.009Z,92.50
2023-04-30T00:44:26.437Z,92.50
2023-04-30T00:45:01.429Z,92.60
2023-04-30T00:45:36.130Z,92.60
2023-04-30T00:46:11.751Z,92.60
2023-04-30T00:46:47.700Z,92.60
2023-04-30T00:47:21.207Z,92.50
2023-04-30T00:47:55.263Z,92.40
2023-04-30T00:48:30.230Z,92.40
2023-04-30T00:49:05.580Z,92.30
2023-04-30T00:49:39.902Z,92.30
2023-04-30T00:50:16.270Z,92.30
2023-04-30T00:50:50.095Z,92.20
2023-04-30T00:51:24.121Z,92.20
2023-04-30T00:51:58.470Z,92.20
2023-04-30T00:52:31.986Z,92.10
2023-04-30T00:53:05.080Z,92.10
2023-04-30T00:53:41.512Z,92.10
2023-04-30T00:54:15.386Z,92.10
2023-04-30T00:54:48.644Z,92.10
2023-04-30T00:55:23.047Z,92.10
2023-04-30T00:55:58.090Z,92.10
2023-04-30T00:56:32.455Z,92.10
2023-04-30T00:57:09.860Z,92.00
2023-04-30T00:57:44.269Z,92.00
2023-04-30T00:58:17.870Z,92.00
2023-04-30T00:58:57.140Z,91.90
2023-04-30T00:59:31.200Z,91.90
2023-04-30T01:00:06.364Z,91.90
2023-04-30T01:00:43.358Z,91.90
2023-04-30T01:01:18.666Z,91.90
2023-04-30T01:01:53.275Z,91.90
2023-04-30T01:02:28.267Z,91.90
2023-04-30T01:03:02.308Z,91.90
2023-04-30T01:03:37.021Z,91.90
2023-04-30T01:04:12.392Z,91.90
2023-04-30T01:04:47.462Z,92.00
2023-04-30T01:05:23.666Z,92.00
2023-04-30T01:05:59.012Z,92.00
2023-04-30T01:06:33.254Z,92.00
2023-04-30T01:07:07.031Z,92.10
2023-04-30T01:07:45.159Z,92.10
2023-04-30T01:08:19.320Z,92.10
2023-04-30T01:08:52.614Z,92.10
2023-04-30T01:09:28.112Z,92.10
2023-04-30T01:10:02.661Z,92.10
2023-04-30T01:10:42.695Z,92.20
2023-04-30T01:11:23.067Z,92.20
2023-04-30T01:12:02.116Z,92.20
2023-04-30T01:12:43.338Z,92.10
2023-04-30T01:13:27.331Z,92.00
2023-04-30T01:14:09.603Z,92.00
2023-04-30T01:15:28.557Z,91.70
2023-04-30T01:16:12.296Z,91.90
2023-04-30T01:16:54.126Z,92.00
2023-04-30T01:17:35.459Z,91.90
2023-04-30T01:18:25.249Z,92.00
2023-04-30T01:19:06.520Z,92.00
2023-04-30T01:19:45.098Z,92.00
2023-04-30T01:20:21.040Z,92.00
2023-04-30T01:21:00.508Z,92.00
2023-04-30T01:21:34.013Z,92.00
2023-04-30T01:22:12.114Z,92.00
2023-04-30T01:22:51.304Z,92.10
2023-04-30T01:23:39.274Z,92.10
2023-04-30T01:24:33.128Z,92.10
2023-04-30T01:25:34.481Z,92.30
2023-04-30T01:26:16.027Z,92.20
2023-04-30T01:27:04.614Z,92.20
2023-04-30T01:28:03.494Z,92.20
2023-04-30T01:28:39.168Z,92.20
2023-04-30T01:29:16.355Z,92.30
2023-04-30T01:29:52.016Z,92.20
2023-04-30T01:30:26.852Z,92.20
2023-04-30T01:31:01.667Z,92.20
2023-04-30T01:31:36.573Z,92.20
2023-04-30T01:32:12.077Z,92.20
2023-04-30T01:32:48.339Z,92.30
2023-04-30T01:33:22.268Z,92.40
2023-04-30T01:33:57.809Z,92.40
2023-04-30T01:34:33.471Z,92.50
2023-04-30T01:35:08.410Z,92.50
2023-04-30T01:36:00.147Z,92.50
2023-04-30T01:36:57.471Z,92.50
2023-04-30T01:37:41.769Z,92.80
2023-04-30T01:38:26.574Z,92.60
2023-04-30T01:39:35.567Z,92.60
2023-04-30T01:40:25.388Z,92.60
2023-04-30T01:41:02.933Z,92.60
2023-04-30T01:41:41.050Z,92.60
2023-04-30T01:42:21.913Z,92.60
2023-04-30T01:43:13.947Z,92.60
2023-04-30T01:43:57.444Z,92.70
2023-04-30T01:45:00.401Z,92.60
2023-04-30T01:45:46.945Z,92.60
2023-04-30T01:46:28.148Z,92.70
2023-04-30T01:47:09.251Z,92.60
2023-04-30T01:47:50.538Z,92.60
2023-04-30T01:48:34.450Z,92.70
2023-04-30T01:49:18.572Z,92.70
2023-04-30T01:50:07.687Z,92.70
2023-04-30T01:50:48.207Z,92.70
2023-04-30T01:51:31.955Z,92.70
2023-04-30T01:52:15.762Z,92.70
2023-04-30T01:52:53.379Z,92.70
2023-04-30T01:53:40.738Z,92.70
2023-04-30T01:54:24.933Z,92.70
2023-04-30T01:55:05.477Z,92.70
2023-04-30T01:55:42.421Z,92.80
2023-04-30T01:56:31.087Z,92.80
2023-04-30T01:57:07.679Z,92.80
2023-04-30T01:57:47.247Z,92.80
2023-04-30T01:58:27.370Z,92.80
2023-04-30T01:59:01.702Z,92.80
2023-04-30T01:59:37.618Z,92.90
2023-04-30T02:00:12.241Z,92.90
2023-04-30T02:00:50.146Z,92.90
2023-04-30T02:01:30.430Z,92.90
2023-04-30T02:02:03.427Z,93.00
2023-04-30T02:02:38.338Z,93.00
2023-04-30T02:03:12.248Z,92.90
2023-04-30T02:03:45.966Z,92.90
2023-04-30T02:04:20.877Z,92.90
2023-04-30T02:04:53.974Z,93.00
2023-04-30T02:05:28.162Z,93.00
2023-04-30T02:06:03.905Z,93.00
2023-04-30T02:06:37.246Z,93.00
2023-04-30T02:07:10.797Z,93.10
2023-04-30T02:07:48.650Z,93.30
2023-04-30T02:08:24.450Z,93.10
2023-04-30T02:09:03.448Z,93.20
2023-04-30T02:09:38.509Z,93.20
2023-04-30T02:10:13.537Z,93.20
2023-04-30T02:10:48.126Z,93.20
2023-04-30T02:11:24.738Z,93.20
2023-04-30T02:11:58.099Z,93.10
2023-04-30T02:12:31.572Z,93.10
2023-04-30T02:13:05.451Z,93.20
2023-04-30T02:13:41.001Z,93.20
2023-04-30T02:14:14.925Z,93.20
2023-04-30T02:15:11.700Z,93.20
2023-04-30T02:15:47.452Z,93.20
2023-04-30T02:16:21.238Z,93.20
2023-04-30T02:16:56.942Z,93.20
2023-04-30T02:17:30.727Z,93.20
2023-04-30T02:18:04.153Z,93.20
2023-04-30T02:18:39.957Z,93.20
2023-04-30T02:19:13.853Z,93.20
2023-04-30T02:19:47.030Z,93.20
2023-04-30T02:20:22.229Z,93.10
2023-04-30T02:20:56.664Z,93.20
2023-04-30T02:21:29.812Z,93.20
2023-04-30T02:22:04.378Z,93.20
2023-04-30T02:22:37.748Z,93.20
2023-04-30T02:23:11.322Z,93.30
2023-04-30T02:23:46.851Z,93.20
2023-04-30T02:24:21.236Z,93.30
2023-04-30T02:24:56.555Z,93.30
2023-04-30T02:25:33.169Z,93.30
2023-04-30T02:26:08.320Z,93.30
2023-04-30T02:26:42.614Z,93.40
2023-04-30T02:27:17.085Z,93.40
2023-04-30T02:27:51.661Z,93.40
2023-04-30T02:28:26.834Z,93.40
2023-04-30T02:29:01.985Z,93.40
2023-04-30T02:29:36.334Z,93.40
2023-04-30T02:30:10.370Z,93.40
2023-04-30T02:30:45.130Z,93.40
2023-04-30T02:31:19.599Z,93.40
2023-04-30T02:31:53.445Z,93.50
2023-04-30T02:32:27.437Z,93.50
2023-04-30T02:33:02.872Z,93.50
2023-04-30T02:33:37.354Z,93.50
2023-04-30T02:34:10.833Z,93.50
2023-04-30T02:34:45.376Z,93.50
2023-04-30T02:35:19.678Z,93.50
2023-04-30T02:35:53.100Z,93.50
2023-04-30T02:36:27.301Z,93.80
2023-04-30T02:37:03.992Z,93.60
2023-04-30T02:37:39.469Z,93.60
2023-04-30T02:38:14.100Z,93.60
2023-04-30T02:38:47.993Z,93.70
2023-04-30T02:39:22.489Z,93.60
2023-04-30T02:39:57.932Z,93.60
2023-04-30T02:40:32.142Z,93.60
2023-04-30T02:41:07.073Z,93.60
2023-04-30T02:41:40.512Z,93.60
2023-04-30T02:42:13.167Z,93.60
2023-04-30T02:42:47.383Z,93.60
2023-04-30T02:43:22.346Z,93.60
2023-04-30T02:43:58.951Z,93.60
2023-04-30T02:44:33.610Z,93.60
2023-04-30T02:45:09.570Z,93.60
2023-04-30T02:45:43.456Z,93.60
2023-04-30T02:46:17.287Z,93.60
2023-04-30T02:46:51.364Z,93.60
2023-04-30T02:47:26.372Z,93.60
2023-04-30T02:48:01.483Z,93.60
2023-04-30T02:48:35.288Z,93.50
2023-04-30T02:49:09.505Z,93.60
2023-04-30T02:49:44.596Z,93.50
2023-04-30T02:50:18.799Z,93.50
2023-04-30T02:50:52.779Z,93.50
2023-04-30T02:51:27.166Z,93.40
2023-04-30T02:51:59.604Z,93.40
2023-04-30T02:52:35.046Z,93.40
2023-04-30T02:53:08.092Z,93.40
2023-04-30T02:53:41.461Z,93.40
2023-04-30T02:54:15.238Z,93.30
2023-04-30T02:54:49.556Z,93.30
2023-04-30T02:55:23.521Z,93.30
2023-04-30T02:55:59.822Z,93.30
2023-04-30T02:56:33.672Z,93.30
2023-04-30T02:57:08.593Z,93.30
2023-04-30T02:57:44.158Z,93.30
2023-04-30T02:58:19.125Z,93.30
2023-04-30T02:58:54.368Z,93.30
2023-04-30T02:59:29.591Z,93.30
2023-04-30T03:00:05.643Z,93.20
2023-04-30T03:00:39.232Z,93.30
2023-04-30T03:01:14.421Z,93.20
2023-04-30T03:01:47.427Z,93.20
2023-04-30T03:02:22.147Z,93.30
2023-04-30T03:02:57.262Z,93.30
2023-04-30T03:03:30.438Z,93.30
2023-04-30T03:04:03.943Z,93.40
2023-04-30T03:04:39.705Z,93.40
2023-04-30T03:05:15.818Z,93.40
2023-04-30T03:05:50.023Z,93.40
2023-04-30T03:06:25.786Z,93.50
2023-04-30T03:07:00.635Z,93.50
2023-04-30T03:07:33.936Z,93.50
2023-04-30T03:08:10.176Z,93.50
2023-04-30T03:08:43.929Z,93.40
2023-04-30T03:09:18.115Z,93.50
2023-04-30T03:09:54.680Z,93.50
2023-04-30T03:10:27.515Z,93.50
2023-04-30T03:11:02.196Z,93.50
2023-04-30T03:11:37.830Z,93.40
2023-04-30T03:12:11.957Z,93.30
2023-04-30T03:12:46.113Z,93.10
2023-04-30T03:13:21.578Z,92.90
2023-04-30T03:13:54.995Z,92.80
2023-04-30T03:14:27.448Z,92.70
2023-04-30T03:15:01.587Z,92.60
2023-04-30T03:15:38.697Z,92.60
2023-04-30T03:16:14.287Z,92.50
2023-04-30T03:16:48.455Z,92.40
2023-04-30T03:17:24.353Z,92.20
2023-04-30T03:17:58.663Z,92.00
2023-04-30T03:18:32.292Z,91.90
2023-04-30T03:19:05.757Z,91.80
2023-04-30T03:19:41.056Z,91.60
2023-04-30T03:20:15.430Z,91.40
2023-04-30T03:20:48.022Z,91.20
2023-04-30T03:21:23.777Z,91.00
2023-04-30T03:21:57.987Z,91.00
2023-04-30T03:22:32.308Z,91.00
2023-04-30T03:23:07.112Z,91.10
2023-04-30T03:23:39.987Z,91.10
2023-04-30T03:24:13.186Z,91.20
2023-04-30T03:24:47.614Z,91.20
2023-04-30T03:25:21.239Z,91.10
2023-04-30T03:25:54.673Z,90.90
2023-04-30T03:26:29.369Z,90.70
2023-04-30T03:27:02.704Z,90.60
2023-04-30T03:27:36.913Z,90.40
2023-04-30T03:28:11.003Z,90.30
2023-04-30T03:28:45.515Z,90.10
2023-04-30T03:29:19.634Z,90.10
2023-04-30T03:29:53.585Z,90.10
2023-04-30T03:30:27.227Z,90.20
2023-04-30T03:31:05.515Z,90.10
2023-04-30T03:31:40.188Z,89.90
2023-04-30T03:32:13.636Z,90.00
2023-04-30T03:32:47.755Z,90.20
2023-04-30T03:33:22.861Z,89.60
2023-04-30T03:33:58.457Z,89.40
2023-04-30T03:34:32.001Z,89.50
2023-04-30T03:35:09.333Z,89.60
2023-04-30T03:35:42.966Z,89.50
2023-04-30T03:36:18.013Z,89.40
2023-04-30T03:36:51.263Z,89.00
2023-04-30T03:37:24.817Z,89.00
2023-04-30T03:37:58.908Z,89.00
2023-04-30T03:38:32.377Z,88.60
2023-04-30T03:39:05.502Z,88.10
2023-04-30T03:39:40.830Z,87.90
2023-04-30T03:40:15.349Z,87.70
2023-04-30T03:40:49.466Z,87.50
2023-04-30T03:41:24.159Z,87.20
2023-04-30T03:41:57.852Z,86.80
2023-04-30T03:42:31.117Z,85.80
2023-04-30T03:43:05.522Z,85.60
2023-04-30T03:43:39.713Z,85.70
2023-04-30T03:44:16.438Z,85.60
2023-04-30T03:44:51.328Z,85.20
2023-04-30T03:45:26.046Z,85.40
2023-04-30T03:46:01.896Z,85.40
2023-04-30T03:46:36.821Z,85.20
2023-04-30T03:47:09.929Z,85.00
2023-04-30T03:47:43.652Z,84.80
2023-04-30T03:48:17.980Z,84.70
2023-04-30T03:48:52.119Z,84.70
2023-04-30T03:49:25.569Z,84.90
2023-04-30T03:49:59.729Z,84.90
2023-04-30T03:50:33.421Z,84.90
2023-04-30T03:51:07.192Z,84.90
2023-04-30T03:51:43.757Z,85.00
2023-04-30T03:52:17.702Z,84.80
2023-04-30T03:52:50.414Z,84.70
2023-04-30T03:53:27.420Z,84.80
2023-04-30T03:54:01.533Z,84.80
2023-04-30T03:54:35.171Z,84.80
2023-04-30T03:55:11.510Z,84.40
2023-04-30T03:55:45.137Z,84.80
2023-04-30T03:56:18.866Z,84.90
2023-04-30T03:56:52.815Z,84.90
2023-04-30T03:57:27.311Z,84.80
2023-04-30T03:58:01.032Z,84.60
2023-04-30T03:58:35.517Z,84.40
2023-04-30T03:59:08.447Z,84.40
2023-04-30T03:59:42.908Z,84.50
2023-04-30T04:00:19.450Z,84.50
2023-04-30T04:00:55.439Z,84.50
2023-04-30T04:01:30.082Z,84.30
2023-04-30T04:02:04.598Z,84.10
2023-04-30T04:02:38.234Z,83.30
2023-04-30T04:03:13.239Z,83.40
2023-04-30T04:03:49.401Z,84.00
2023-04-30T04:04:23.559Z,84.00
2023-04-30T04:04:58.703Z,83.70
2023-04-30T04:05:34.840Z,83.70
2023-04-30T04:06:08.112Z,83.70
2023-04-30T04:06:41.598Z,83.30
2023-04-30T04:07:16.042Z,83.20
2023-04-30T04:07:49.968Z,83.20
2023-04-30T04:08:25.649Z,82.60
2023-04-30T04:09:01.754Z,82.20
2023-04-30T04:09:35.997Z,81.70
2023-04-30T04:10:10.785Z,81.40
2023-04-30T04:10:46.726Z,81.10
2023-04-30T04:11:19.672Z,80.70
2023-04-30T04:11:52.873Z,80.40
2023-04-30T04:12:28.750Z,80.10
2023-04-30T04:13:02.604Z,79.60
2023-04-30T04:14:10.413Z,77.80
2023-04-30T04:15:18.913Z,77.10
2023-04-30T04:15:53.390Z,76.50
2023-04-30T04:16:27.929Z,76.10
2023-04-30T04:17:02.596Z,75.90
2023-04-30T04:17:37.380Z,74.90
2023-04-30T04:18:11.388Z,73.40
2023-04-30T04:18:45.626Z,73.70
2023-04-30T04:19:20.197Z,74.10
2023-04-30T04:19:53.649Z,73.50
2023-04-30T04:20:30.878Z,73.10
2023-04-30T04:21:05.188Z,73.30
2023-04-30T04:21:39.707Z,72.80
2023-04-30T04:22:21.664Z,71.80
2023-04-30T04:22:55.947Z,71.30
2023-04-30T04:23:30.114Z,71.20
2023-04-30T04:24:08.452Z,71.30
2023-04-30T04:24:42.821Z,71.50
2023-04-30T04:25:20.068Z,71.50
2023-04-30T04:25:54.757Z,71.80
2023-04-30T04:26:29.034Z,71.90
2023-04-30T04:27:03.810Z,72.00
2023-04-30T04:27:37.413Z,72.00
2023-04-30T04:28:11.657Z,72.10
2023-04-30T04:28:48.565Z,72.00
2023-04-30T04:29:22.551Z,71.70
2023-04-30T04:29:57.116Z,71.70
2023-04-30T04:30:32.398Z,72.20
2023-04-30T04:31:05.972Z,71.30
2023-04-30T04:31:42.352Z,71.30
2023-04-30T04:32:19.229Z,71.20
2023-04-30T04:32:54.562Z,71.30
2023-04-30T04:33:29.714Z,71.40
2023-04-30T04:34:06.095Z,71.30
2023-04-30T04:34:40.652Z,71.30
2023-04-30T04:35:15.633Z,71.20
2023-04-30T04:35:51.624Z,71.10
2023-04-30T04:36:30.347Z,71.60
2023-04-30T04:37:04.628Z,70.90
2023-04-30T04:37:40.815Z,70.80
2023-04-30T04:38:14.866Z,70.30
2023-04-30T04:38:50.329Z,70.30
2023-04-30T04:39:24.227Z,70.40
2023-04-30T04:39:57.973Z,70.10
2023-04-30T04:40:32.012Z,70.20
2023-04-30T04:41:07.348Z,70.10
2023-04-30T04:41:40.212Z,70.10
2023-04-30T04:42:17.696Z,70.40
2023-04-30T04:42:52.134Z,70.40
2023-04-30T04:43:26.867Z,70.10
2023-04-30T04:44:02.476Z,70.10
2023-04-30T04:44:36.597Z,70.20
2023-04-30T04:45:10.252Z,70.20
2023-04-30T04:45:46.035Z,70.10
2023-04-30T04:46:21.545Z,70.20
2023-04-30T04:46:57.413Z,69.90
2023-04-30T04:47:33.126Z,69.50
2023-04-30T04:48:07.134Z,69.60
2023-04-30T04:48:41.888Z,69.60
2023-04-30T04:49:16.670Z,70.30
2023-04-30T04:49:50.053Z,69.80
2023-04-30T04:50:23.850Z,69.80
2023-04-30T04:50:58.825Z,69.90
2023-04-30T04:51:33.705Z,70.10
2023-04-30T04:52:07.385Z,70.20
2023-04-30T04:52:41.821Z,70.10
2023-04-30T04:53:16.787Z,69.80
2023-04-30T04:53:50.289Z,69.30
2023-04-30T04:54:25.074Z,69.00
2023-04-30T04:54:58.811Z,68.50
2023-04-30T04:55:33.289Z,67.90
2023-04-30T04:56:09.676Z,68.10
2023-04-30T04:56:43.725Z,68.10
2023-04-30T04:57:18.876Z,67.60
2023-04-30T04:57:51.853Z,67.00
2023-04-30T04:58:27.626Z,67.00
2023-04-30T04:59:02.750Z,66.50
2023-04-30T04:59:36.837Z,66.80
2023-04-30T05:00:13.242Z,67.10
2023-04-30T05:00:47.705Z,67.40
2023-04-30T05:01:21.451Z,67.60
2023-04-30T05:01:54.912Z,67.60
2023-04-30T05:02:31.397Z,67.00
2023-04-30T05:03:04.827Z,67.00
2023-04-30T05:03:38.959Z,67.00
2023-04-30T05:04:14.721Z,67.20
2023-04-30T05:04:50.814Z,67.50
2023-04-30T05:05:24.705Z,67.20
2023-04-30T05:05:59.745Z,67.50
2023-04-30T05:06:32.730Z,67.70
2023-04-30T05:07:06.505Z,67.80
2023-04-30T05:07:41.079Z,68.00
2023-04-30T05:08:15.558Z,68.10
2023-04-30T05:08:49.035Z,68.10
2023-04-30T05:09:23.313Z,68.00
2023-04-30T05:09:57.829Z,68.00
2023-04-30T05:10:30.585Z,67.70
2023-04-30T05:11:05.296Z,67.40
2023-04-30T05:11:39.254Z,67.30
2023-04-30T05:12:12.733Z,67.30
2023-04-30T05:12:47.461Z,67.00
2023-04-30T05:13:20.721Z,66.80
2023-04-30T05:13:54.073Z,66.50
2023-04-30T05:14:29.261Z,66.10
2023-04-30T05:15:02.340Z,65.60
2023-04-30T05:15:37.147Z,65.40
2023-04-30T05:16:12.022Z,65.40
2023-04-30T05:16:47.290Z,65.10
2023-04-30T05:17:21.304Z,64.30
2023-04-30T05:17:58.562Z,64.00
2023-04-30T05:18:33.415Z,63.20
2023-04-30T05:19:06.534Z,63.20
2023-04-30T05:19:40.363Z,63.30
2023-04-30T05:20:14.806Z,63.40
2023-04-30T05:20:48.681Z,63.00
2023-04-30T05:21:23.848Z,63.00
2023-04-30T05:21:57.752Z,63.30
2023-04-30T05:22:31.668Z,62.70
2023-04-30T05:23:07.133Z,63.00
2023-04-30T05:23:40.808Z,63.10
2023-04-30T05:24:16.385Z,62.80
2023-04-30T05:24:53.676Z,62.80
2023-04-30T05:25:28.071Z,62.70
2023-04-30T05:26:02.007Z,62.60
2023-04-30T05:26:37.016Z,62.60
2023-04-30T05:27:11.929Z,62.70
2023-04-30T05:27:44.725Z,62.80
2023-04-30T05:28:18.677Z,63.10
2023-04-30T05:28:53.461Z,63.10
2023-04-30T05:29:28.000Z,62.90
2023-04-30T05:30:03.388Z,63.00
2023-04-30T05:30:39.405Z,63.30
2023-04-30T05:31:12.802Z,63.60
2023-04-30T05:31:47.128Z,63.60
2023-04-30T05:32:22.745Z,63.50
2023-04-30T05:32:58.838Z,63.50
2023-04-30T05:33:33.398Z,63.00
2023-04-30T05:34:08.542Z,62.60
2023-04-30T05:34:43.335Z,62.50
2023-04-30T05:35:17.121Z,62.40
2023-04-30T05:35:50.211Z,62.40
2023-04-30T05:36:24.465Z,62.40
2023-04-30T05:36:58.301Z,62.60
2023-04-30T05:37:31.479Z,62.40
2023-04-30T05:38:06.186Z,62.20
2023-04-30T05:38:41.132Z,62.10
2023-04-30T05:39:15.026Z,61.90
2023-04-30T05:39:49.922Z,62.00
2023-04-30T05:40:24.453Z,62.00
2023-04-30T05:40:58.268Z,62.40
2023-04-30T05:41:33.253Z,62.80
2023-04-30T05:42:07.091Z,62.90
2023-04-30T05:42:41.156Z,62.80
2023-04-30T05:43:16.016Z,62.70
2023-04-30T05:43:49.080Z,62.50
2023-04-30T05:44:23.732Z,62.10
2023-04-30T05:44:58.082Z,61.90
2023-04-30T05:45:31.639Z,61.80
2023-04-30T05:46:05.693Z,61.10
2023-04-30T05:46:41.180Z,61.00
2023-04-30T05:47:14.804Z,60.80
2023-04-30T05:47:47.630Z,60.80
2023-04-30T05:48:22.826Z,60.70
2023-04-30T05:48:57.477Z,60.60
2023-04-30T05:49:33.708Z,60.50
2023-04-30T05:50:11.046Z,60.50
2023-04-30T05:50:44.278Z,60.50
2023-04-30T05:51:20.678Z,60.60
2023-04-30T05:51:54.007Z,60.40
2023-04-30T05:52:28.305Z,60.40
2023-04-30T05:53:02.957Z,60.20
2023-04-30T05:53:36.756Z,60.10
2023-04-30T05:54:11.202Z,60.10
2023-04-30T05:54:47.312Z,59.90
2023-04-30T05:55:23.189Z,60.00
2023-04-30T05:55:57.908Z,60.10
2023-04-30T05:56:31.668Z,60.40
2023-04-30T05:57:06.129Z,60.40
2023-04-30T05:57:39.916Z,60.40
2023-04-30T05:58:13.802Z,59.90
2023-04-30T05:58:48.716Z,59.50
2023-04-30T05:59:22.235Z,59.10
2023-04-30T05:59:55.936Z,59.10
2023-04-30T06:00:31.331Z,59.10
2023-04-30T06:01:07.183Z,58.90
2023-04-30T06:01:42.319Z,58.10
2023-04-30T06:02:16.378Z,57.80
2023-04-30T06:02:51.343Z,58.10
2023-04-30T06:03:26.087Z,58.20
2023-04-30T06:04:01.445Z,57.90
2023-04-30T06:04:35.419Z,57.60
2023-04-30T06:05:09.652Z,57.60
2023-04-30T06:05:45.173Z,57.80
2023-04-30T06:06:19.676Z,58.10
2023-04-30T06:06:53.934Z,58.20
2023-04-30T06:07:28.255Z,58.20
2023-04-30T06:08:01.146Z,58.10
2023-04-30T06:08:35.176Z,58.30
2023-04-30T06:09:10.779Z,58.20
2023-04-30T06:09:44.162Z,58.00
2023-04-30T06:10:18.741Z,57.90
2023-04-30T06:10:53.937Z,57.20
2023-04-30T06:11:28.704Z,56.80
2023-04-30T06:12:04.069Z,57.00
2023-04-30T06:12:38.001Z,57.20
2023-04-30T06:13:11.909Z,57.20
2023-04-30T06:13:49.896Z,56.90
2023-04-30T06:14:22.988Z,56.40
2023-04-30T06:14:58.183Z,56.50
2023-04-30T06:15:32.817Z,56.50
2023-04-30T06:16:09.378Z,55.80
2023-04-30T06:16:43.143Z,55.40
2023-04-30T06:17:17.224Z,55.30
2023-04-30T06:17:51.143Z,55.50
2023-04-30T06:18:26.736Z,55.40
2023-04-30T06:19:00.658Z,55.60
2023-04-30T06:19:35.200Z,55.70
2023-04-30T06:20:10.390Z,55.60
2023-04-30T06:20:45.752Z,55.40
2023-04-30T06:21:20.946Z,55.20
2023-04-30T06:21:55.904Z,55.00
2023-04-30T06:22:30.848Z,55.10
2023-04-30T06:23:04.149Z,55.10
2023-04-30T06:23:40.128Z,54.80
2023-04-30T06:24:13.815Z,54.50
2023-04-30T06:24:48.058Z,54.30
2023-04-30T06:25:21.646Z,54.10
2023-04-30T06:25:56.340Z,54.50
2023-04-30T06:26:30.340Z,53.50
2023-04-30T06:27:03.504Z,53.10
2023-04-30T06:27:37.669Z,53.10
2023-04-30T06:28:11.713Z,53.20
2023-04-30T06:28:46.184Z,53.50
2023-04-30T06:29:21.837Z,53.40
2023-04-30T06:29:55.947Z,53.30
2023-04-30T06:30:32.227Z,53.30
2023-04-30T06:31:07.892Z,52.60
2023-04-30T06:31:43.567Z,52.80
2023-04-30T06:32:18.486Z,52.30
2023-04-30T06:32:53.649Z,51.50
2023-04-30T06:33:28.683Z,51.60
2023-04-30T06:34:03.769Z,51.70
2023-04-30T06:34:38.400Z,51.60
2023-04-30T06:35:13.561Z,51.30
2023-04-30T06:35:48.298Z,50.40
2023-04-30T06:36:22.301Z,50.50
2023-04-30T06:36:56.281Z,50.90
2023-04-30T06:37:35.983Z,51.00
2023-04-30T06:38:09.802Z,51.30
2023-04-30T06:38:43.967Z,51.50
2023-04-30T06:39:18.370Z,51.30
2023-04-30T06:39:53.441Z,51.40
2023-04-30T06:40:27.646Z,51.30
2023-04-30T06:41:02.382Z,51.20
2023-04-30T06:41:34.902Z,51.10
2023-04-30T06:42:15.631Z,51.60
2023-04-30T06:42:51.017Z,50.60
2023-04-30T06:43:25.598Z,49.80
2023-04-30T06:43:59.767Z,49.70
2023-04-30T06:44:35.632Z,49.60
2023-04-30T06:45:15.336Z,49.50
2023-04-30T06:45:50.736Z,49.50
2023-04-30T06:46:24.850Z,49.50
2023-04-30T06:46:57.531Z,49.30
2023-04-30T06:47:34.998Z,48.40
2023-04-30T06:48:09.024Z,48.70
2023-04-30T06:48:46.835Z,47.90
2023-04-30T06:49:20.441Z,48.00
2023-04-30T06:50:28.517Z,47.00
2023-04-30T06:51:01.946Z,47.70
2023-04-30T06:51:35.123Z,47.50
2023-04-30T06:52:09.644Z,47.30
2023-04-30T06:52:43.231Z,46.30
2023-04-30T06:53:17.639Z,46.30
2023-04-30T08:11:31.835Z,46.00
2023-04-30T08:12:08.099Z,44.60
2023-04-30T08:12:41.733Z,44.90
2023-04-30T08:13:15.830Z,45.10
2023-04-30T08:13:50.241Z,45.30
2023-04-30T08:14:23.900Z,45.50
2023-04-30T08:15:02.854Z,45.80
2023-04-30T08:15:38.487Z,45.80
2023-04-30T08:16:14.558Z,46.00
2023-04-30T08:16:47.879Z,45.70
2023-04-30T08:17:22.814Z,45.60
2023-04-30T08:17:57.476Z,45.40
2023-04-30T08:18:32.288Z,45.60
2023-04-30T08:19:07.777Z,45.90
2023-04-30T08:19:41.625Z,45.80
2023-04-30T08:20:18.477Z,45.80
2023-04-30T08:20:51.922Z,45.70
2023-04-30T08:21:24.986Z,45.90
2023-04-30T08:22:01.298Z,46.00
2023-04-30T08:22:35.777Z,46.00
2023-04-30T08:23:10.919Z,46.00
2023-04-30T08:23:44.948Z,46.10
2023-04-30T08:24:19.931Z,46.20
2023-04-30T08:24:53.614Z,46.10
2023-04-30T08:25:29.123Z,46.10
2023-04-30T08:26:03.611Z,46.20
2023-04-30T08:26:39.270Z,46.20
2023-04-30T08:27:12.636Z,46.30
2023-04-30T08:27:47.599Z,46.30
2023-04-30T08:28:21.211Z,46.40
2023-04-30T08:28:56.054Z,46.50
2023-04-30T08:29:30.519Z,46.60
2023-04-30T08:30:04.235Z,46.70
2023-04-30T08:30:38.838Z,46.80
2023-04-30T08:31:13.110Z,46.80
2023-04-30T08:31:47.975Z,46.60
2023-04-30T08:32:22.495Z,46.70
2023-04-30T08:32:58.196Z,46.80
2023-04-30T08:33:33.411Z,46.80
2023-04-30T08:34:09.191Z,46.80
2023-04-30T08:34:43.716Z,46.90
2023-04-30T08:35:19.373Z,46.50
2023-04-30T08:35:54.206Z,46.50
2023-04-30T08:36:27.795Z,46.40
2023-04-30T08:37:02.886Z,46.40
2023-04-30T08:37:36.732Z,46.40
2023-04-30T08:38:11.063Z,46.40
2023-04-30T08:38:46.108Z,46.30
2023-04-30T08:39:20.028Z,46.10
2023-04-30T08:39:56.743Z,46.00
2023-04-30T08:40:50.183Z,46.20
2023-04-30T08:41:29.077Z,46.30
2023-04-30T08:42:04.442Z,46.50
2023-04-30T08:42:43.351Z,46.60
2023-04-30T08:43:20.653Z,46.80
2023-04-30T08:43:55.310Z,46.60
2023-04-30T08:44:29.476Z,46.60
2023-04-30T08:45:05.114Z,46.60
2023-04-30T08:45:41.597Z,46.40
2023-04-30T08:46:17.179Z,46.40
2023-04-30T08:46:53.280Z,46.50
2023-04-30T08:47:28.997Z,46.30
2023-04-30T08:48:04.979Z,46.20
2023-04-30T08:48:39.104Z,46.30
2023-04-30T08:49:14.359Z,46.50
2023-04-30T08:49:48.090Z,46.70
2023-04-30T08:50:23.324Z,46.70
2023-04-30T08:50:57.574Z,46.90
2023-04-30T08:51:33.074Z,46.80
2023-04-30T08:52:08.432Z,46.90
2023-04-30T08:52:44.518Z,46.90
2023-04-30T08:53:22.201Z,46.90
2023-04-30T08:53:58.009Z,46.80
2023-04-30T08:54:31.997Z,46.90
2023-04-30T08:55:11.744Z,47.00
2023-04-30T08:55:46.003Z,47.10
2023-04-30T08:56:22.584Z,47.10